createdAt,value
2022-08-25T00:00:51.515Z,3.04
2022-08-25T00:02:12.939Z,2.76
2022-08-25T00:03:36.008Z,3.27
2022-08-25T00:04:57.902Z,2.88
2022-08-25T00:06:21.043Z,3.29
2022-08-25T00:07:43.925Z,2.93
2022-08-25T00:09:05.414Z,2.77
2022-08-25T00:10:29.254Z,3.09
2022-08-25T00:11:50.472Z,2.85
2022-08-25T00:13:11.812Z,3.19
2022-08-25T00:14:34.941Z,2.84
2022-08-25T00:15:56.545Z,3.39
2022-08-25T00:17:18.008Z,3.09
2022-08-25T00:18:39.910Z,3.14
2022-08-25T00:20:01.056Z,3.03
2022-08-25T00:21:22.534Z,3.11
2022-08-25T00:22:43.835Z,3.26
2022-08-25T00:24:05.137Z,3.32
2022-08-25T00:25:26.869Z,2.93
2022-08-25T00:26:51.239Z,2.97
2022-08-25T00:28:13.574Z,3.28
2022-08-25T00:29:38.268Z,2.86
2022-08-25T00:31:00.598Z,2.38
2022-08-25T00:32:22.070Z,2.93
2022-08-25T00:33:44.636Z,3.23
2022-08-25T00:35:06.419Z,3.19
2022-08-25T00:36:29.118Z,3.06
2022-08-25T00:37:50.319Z,3.14
2022-08-25T00:39:11.867Z,3.43
2022-08-25T00:40:34.006Z,3.54
2022-08-25T00:41:55.757Z,3.73
2022-08-25T00:43:17.584Z,3.44
2022-08-25T00:44:39.093Z,4.05
2022-08-25T00:46:00.233Z,3.64
2022-08-25T00:47:21.427Z,3.20
2022-08-25T00:48:43.529Z,3.07
2022-08-25T00:50:07.329Z,3.18
2022-08-25T00:51:47.448Z,2.96
2022-08-25T00:53:08.770Z,3.09
2022-08-25T00:55:49.154Z,2.53
2022-08-25T00:57:11.518Z,3.29
2022-08-25T00:58:33.114Z,2.96
2022-08-25T00:59:54.665Z,3.41
2022-08-25T01:01:16.353Z,2.93
2022-08-25T01:02:38.098Z,3.24
2022-08-25T01:03:59.624Z,3.03
2022-08-25T01:05:21.023Z,3.62
2022-08-25T01:06:42.929Z,3.06
2022-08-25T01:08:06.635Z,3.34
2022-08-25T01:09:28.659Z,3.13
2022-08-25T01:12:11.824Z,2.83
2022-08-25T01:14:49.840Z,2.84
2022-08-25T01:16:13.116Z,3.13
2022-08-25T01:17:37.589Z,3.24
2022-08-25T01:18:58.806Z,3.11
2022-08-25T01:20:22.950Z,3.16
2022-08-25T01:21:48.478Z,2.65
2022-08-25T01:23:09.926Z,3.41
2022-08-25T01:24:42.344Z,3.32
2022-08-25T01:26:10.028Z,2.98
2022-08-25T01:27:31.350Z,3.09
2022-08-25T01:28:52.927Z,3.03
2022-08-25T01:31:37.088Z,3.18
2022-08-25T01:32:58.499Z,3.45
2022-08-25T01:34:20.798Z,3.30
2022-08-25T01:35:42.091Z,3.10
2022-08-25T01:37:04.123Z,3.23
2022-08-25T01:38:25.652Z,3.09
2022-08-25T01:39:47.486Z,3.58
2022-08-25T01:41:09.048Z,3.30
2022-08-25T01:42:54.191Z,3.07
2022-08-25T01:44:16.766Z,3.33
2022-08-25T01:45:39.697Z,3.56
2022-08-25T01:47:02.384Z,3.09
2022-08-25T01:48:23.831Z,3.02
2022-08-25T01:49:45.394Z,3.51
2022-08-25T01:51:07.387Z,3.70
2022-08-25T01:52:35.666Z,3.18
2022-08-25T01:53:57.026Z,3.44
2022-08-25T01:55:18.496Z,3.66
2022-08-25T01:56:39.970Z,3.42
2022-08-25T01:58:01.191Z,3.37
2022-08-25T01:59:24.281Z,3.74
2022-08-25T02:00:49.949Z,3.77
2022-08-25T02:02:11.658Z,3.56
2022-08-25T02:03:38.329Z,3.54
2022-08-25T02:05:01.654Z,3.62
2022-08-25T02:07:42.957Z,3.31
2022-08-25T02:09:07.242Z,3.46
2022-08-25T02:10:28.706Z,3.04
2022-08-25T02:11:50.096Z,3.42
2022-08-25T02:13:11.797Z,3.50
2022-08-25T02:14:35.579Z,3.79
2022-08-25T02:15:57.329Z,3.72
2022-08-25T02:17:18.645Z,3.09
2022-08-25T02:18:40.262Z,3.25
2022-08-25T02:21:15.089Z,3.27
2022-08-25T02:22:36.608Z,3.39
2022-08-25T02:23:57.839Z,3.41
2022-08-25T02:25:21.443Z,3.33
2022-08-25T02:26:43.349Z,3.54
2022-08-25T02:28:04.985Z,3.37
2022-08-25T02:29:26.890Z,3.57
2022-08-25T02:30:48.978Z,3.02
2022-08-25T02:32:10.797Z,3.51
2022-08-25T02:33:32.339Z,3.26
2022-08-25T02:34:53.779Z,3.28
2022-08-25T02:36:17.238Z,3.66
2022-08-25T02:37:38.394Z,3.46
2022-08-25T02:39:00.155Z,3.10
2022-08-25T02:40:21.729Z,3.23
2022-08-25T02:41:43.496Z,3.41
2022-08-25T02:44:20.169Z,3.42
2022-08-25T02:45:41.740Z,3.58
2022-08-25T02:47:03.919Z,3.37
2022-08-25T02:48:25.357Z,3.23
2022-08-25T02:49:47.041Z,3.71
2022-08-25T02:51:09.031Z,3.53
2022-08-25T02:52:30.289Z,3.43
2022-08-25T02:53:51.737Z,3.41
2022-08-25T02:55:13.567Z,3.16
2022-08-25T02:56:38.343Z,3.61
2022-08-25T02:57:59.784Z,3.41
2022-08-25T02:59:21.214Z,3.65
2022-08-25T03:00:42.831Z,3.92
2022-08-25T03:02:05.156Z,3.72
2022-08-25T03:03:26.473Z,4.12
2022-08-25T03:04:47.763Z,4.53
2022-08-25T03:06:11.755Z,4.22
2022-08-25T03:07:35.451Z,4.21
2022-08-25T03:08:57.281Z,3.51
2022-08-25T03:10:19.211Z,4.24
2022-08-25T03:11:40.691Z,3.55
2022-08-25T03:13:02.154Z,3.69
2022-08-25T03:14:23.640Z,3.87
2022-08-25T03:15:45.106Z,3.72
2022-08-25T03:17:08.600Z,3.36
2022-08-25T03:18:30.038Z,3.61
2022-08-25T03:19:51.958Z,3.84
2022-08-25T03:21:13.431Z,4.14
2022-08-25T03:22:37.133Z,3.67
2022-08-25T03:23:58.375Z,4.17
2022-08-25T03:25:23.892Z,3.88
2022-08-25T03:26:43.069Z,4.01
2022-08-25T03:28:05.665Z,4.12
2022-08-25T03:30:55.714Z,3.60
2022-08-25T03:32:13.420Z,3.63
2022-08-25T03:33:34.955Z,3.57
2022-08-25T03:34:56.405Z,3.79
2022-08-25T03:37:40.654Z,4.19
2022-08-25T03:39:02.253Z,3.91
2022-08-25T03:40:23.994Z,3.54
2022-08-25T03:41:45.429Z,3.76
2022-08-25T03:44:18.001Z,3.60
2022-08-25T03:45:43.319Z,3.81
2022-08-25T03:47:05.165Z,3.85
2022-08-25T03:48:26.682Z,3.12
2022-08-25T03:49:48.210Z,3.56
2022-08-25T03:51:09.867Z,3.79
2022-08-25T03:52:32.399Z,4.24
2022-08-25T03:53:53.993Z,4.02
2022-08-25T03:55:15.943Z,3.51
2022-08-25T03:56:37.442Z,3.68
2022-08-25T03:57:58.862Z,4.89
2022-08-25T03:59:20.279Z,3.94
2022-08-25T04:00:43.098Z,4.29
2022-08-25T04:02:05.582Z,3.79
2022-08-25T04:03:26.955Z,3.76
2022-08-25T04:04:48.368Z,3.59
2022-08-25T04:06:10.964Z,3.81
2022-08-25T04:07:32.097Z,4.06
2022-08-25T04:08:53.757Z,4.70
2022-08-25T04:11:38.448Z,4.28
2022-08-25T04:13:00.599Z,4.04
2022-08-25T04:14:22.228Z,4.72
2022-08-25T04:15:43.773Z,4.74
2022-08-25T04:17:05.398Z,7.38
2022-08-25T04:18:26.773Z,7.37
2022-08-25T04:19:48.126Z,5.11
2022-08-25T04:21:11.390Z,4.59
2022-08-25T04:22:34.420Z,4.82
2022-08-25T04:23:57.915Z,4.78
2022-08-25T04:25:20.765Z,4.82
2022-08-25T04:26:48.847Z,5.09
2022-08-25T04:28:11.812Z,5.06
2022-08-25T04:29:33.250Z,4.10
2022-08-25T04:30:54.893Z,4.86
2022-08-25T04:32:17.282Z,4.67
2022-08-25T04:33:39.873Z,4.52
2022-08-25T04:35:06.468Z,3.81
2022-08-25T04:36:29.941Z,4.24
2022-08-25T04:37:51.718Z,4.33
2022-08-25T04:39:13.246Z,3.83
2022-08-25T04:40:37.152Z,3.88
2022-08-25T04:43:22.973Z,3.48
2022-08-25T04:44:44.753Z,3.93
2022-08-25T04:46:14.565Z,4.15
2022-08-25T04:47:38.330Z,3.80
2022-08-25T04:49:00.087Z,3.48
2022-08-25T04:50:22.410Z,3.56
2022-08-25T04:51:44.652Z,3.81
2022-08-25T04:53:06.082Z,4.28
2022-08-25T04:54:27.784Z,3.97
2022-08-25T04:55:49.711Z,3.61
2022-08-25T04:57:12.204Z,3.53
2022-08-25T04:58:33.669Z,3.69
2022-08-25T04:59:56.221Z,3.55
2022-08-25T05:01:20.148Z,3.41
2022-08-25T05:02:42.110Z,4.47
2022-08-25T05:04:05.234Z,3.25
2022-08-25T05:05:28.027Z,3.75
2022-08-25T05:06:49.477Z,3.52
2022-08-25T05:08:11.905Z,3.49
2022-08-25T05:10:54.562Z,3.36
2022-08-25T05:12:17.687Z,3.23
2022-08-25T05:13:38.944Z,3.02
2022-08-25T05:15:00.642Z,3.53
2022-08-25T05:16:23.707Z,3.26
2022-08-25T05:19:13.686Z,3.71
2022-08-25T05:20:37.069Z,3.28
2022-08-25T05:22:00.310Z,3.51
2022-08-25T05:23:24.835Z,3.29
2022-08-25T05:24:55.712Z,3.43
2022-08-25T05:26:20.724Z,3.45
2022-08-25T05:27:45.665Z,3.70
2022-08-25T05:29:07.255Z,3.58
2022-08-25T05:30:44.927Z,3.41
2022-08-25T05:32:06.531Z,3.64
2022-08-25T05:33:35.447Z,4.38
2022-08-25T05:34:56.760Z,6.10
2022-08-25T05:36:25.252Z,3.86
2022-08-25T05:37:46.822Z,3.57
2022-08-25T05:39:08.161Z,3.40
2022-08-25T05:40:31.930Z,3.49
2022-08-25T05:42:00.200Z,3.11
2022-08-25T05:43:21.396Z,3.08
2022-08-25T05:44:42.705Z,3.37
2022-08-25T05:46:25.914Z,3.22
2022-08-25T05:48:07.917Z,3.73
2022-08-25T05:49:35.773Z,3.76
2022-08-25T05:50:58.889Z,3.55
2022-08-25T05:52:20.676Z,3.47
2022-08-25T05:53:51.938Z,3.46
2022-08-25T05:55:15.569Z,3.52
2022-08-25T05:56:37.336Z,3.02
2022-08-25T05:57:59.065Z,4.17
2022-08-25T05:59:29.090Z,3.36
2022-08-25T06:00:50.722Z,3.79
2022-08-25T06:02:12.376Z,3.68
2022-08-25T06:03:34.076Z,3.49
2022-08-25T06:04:55.457Z,3.57
2022-08-25T06:06:18.576Z,3.54
2022-08-25T06:07:40.905Z,3.07
2022-08-25T06:09:03.910Z,4.20
2022-08-25T06:10:28.043Z,3.29
2022-08-25T06:11:54.032Z,3.51
2022-08-25T06:13:13.507Z,3.72
2022-08-25T06:14:36.842Z,3.40
2022-08-25T06:16:01.239Z,3.57
2022-08-25T06:17:23.034Z,4.95
2022-08-25T06:18:48.415Z,3.69
2022-08-25T06:20:12.712Z,3.71
2022-08-25T06:21:33.979Z,3.04
2022-08-25T06:22:56.468Z,2.93
2022-08-25T06:24:17.859Z,3.00
2022-08-25T06:25:39.637Z,3.29
2022-08-25T06:27:01.276Z,2.95
2022-08-25T06:28:23.811Z,3.07
2022-08-25T06:29:45.477Z,3.53
2022-08-25T06:31:07.030Z,14.81
2022-08-25T06:33:43.863Z,7.33
2022-08-25T06:35:09.126Z,3.82
2022-08-25T06:36:30.569Z,4.02
2022-08-25T06:37:52.848Z,4.18
2022-08-25T06:39:14.268Z,3.43
2022-08-25T06:40:35.997Z,3.05
2022-08-25T06:41:57.793Z,3.21
2022-08-25T06:43:22.594Z,4.79
2022-08-25T06:44:44.274Z,3.13
2022-08-25T06:47:30.768Z,2.72
2022-08-25T06:48:53.612Z,3.07
2022-08-25T06:51:37.057Z,2.77
2022-08-25T06:52:59.883Z,3.23
2022-08-25T06:54:21.403Z,2.57
2022-08-25T06:55:43.277Z,2.75
2022-08-25T06:57:04.895Z,3.17
2022-08-25T06:58:26.780Z,3.18
2022-08-25T06:59:47.980Z,2.82
2022-08-25T07:02:25.369Z,3.36
2022-08-25T07:03:48.312Z,3.90
2022-08-25T07:06:34.061Z,3.23
2022-08-25T07:07:55.387Z,3.16
2022-08-25T07:09:16.841Z,3.04
2022-08-25T07:10:39.168Z,2.75
2022-08-25T07:12:04.243Z,3.04
2022-08-25T07:13:28.884Z,4.92
2022-08-25T07:15:10.029Z,3.38
2022-08-25T07:16:17.365Z,3.59
2022-08-25T07:19:01.747Z,3.56
2022-08-25T07:23:10.192Z,2.69
2022-08-25T07:24:32.370Z,2.87
2022-08-25T07:25:53.902Z,2.98
2022-08-25T07:27:15.515Z,4.73
2022-08-25T07:28:36.924Z,5.45
2022-08-25T07:29:59.964Z,2.83
2022-08-25T07:31:22.809Z,3.13
2022-08-25T07:32:45.940Z,2.86
2022-08-25T07:34:07.515Z,2.40
2022-08-25T07:35:37.522Z,3.39
2022-08-25T07:36:56.647Z,3.76
2022-08-25T07:38:20.915Z,3.72
2022-08-25T07:39:42.406Z,3.16
2022-08-25T07:41:05.882Z,3.48
2022-08-25T07:42:28.110Z,2.24
2022-08-25T07:43:50.098Z,2.52
2022-08-25T07:45:12.463Z,4.03
2022-08-25T07:46:35.053Z,2.67
2022-08-25T07:49:16.293Z,2.29
2022-08-25T07:50:38.451Z,3.10
2022-08-25T07:52:04.510Z,3.28
2022-08-25T07:53:24.560Z,3.14
2022-08-25T07:54:47.650Z,3.89
2022-08-25T07:56:13.660Z,3.35
2022-08-25T07:57:34.839Z,3.86
2022-08-25T07:59:00.341Z,2.98
2022-08-25T08:02:18.271Z,2.69
2022-08-25T08:03:51.194Z,2.39
2022-08-25T08:05:05.575Z,2.74
2022-08-25T08:06:29.983Z,2.73
2022-08-25T08:09:18.864Z,2.38
2022-08-25T08:11:03.167Z,2.69
2022-08-25T08:12:04.628Z,2.84
2022-08-25T08:13:28.192Z,3.40
2022-08-25T08:14:50.808Z,3.07
2022-08-25T08:17:39.797Z,5.03
2022-08-25T08:19:03.032Z,5.56
2022-08-25T08:20:28.580Z,3.29
2022-08-25T08:21:50.129Z,2.99
2022-08-25T08:23:15.454Z,2.38
2022-08-25T08:24:44.864Z,3.69
2022-08-25T08:26:01.689Z,2.77
2022-08-25T08:27:23.596Z,2.65
2022-08-25T08:28:45.406Z,2.48
2022-08-25T08:30:12.950Z,2.58
2022-08-25T08:31:35.504Z,2.90
2022-08-25T08:34:25.130Z,2.85
2022-08-25T08:35:48.309Z,2.57
2022-08-25T08:37:10.425Z,2.81
2022-08-25T08:38:33.294Z,3.21
2022-08-25T08:39:57.178Z,3.47
2022-08-25T08:42:09.597Z,2.87
2022-08-25T08:43:13.439Z,3.59
2022-08-25T08:45:53.085Z,3.02
2022-08-25T08:47:35.500Z,3.19
2022-08-25T08:49:04.946Z,2.83
2022-08-25T08:51:51.639Z,3.03
2022-08-25T08:53:18.682Z,2.71
2022-08-25T08:54:42.503Z,3.47
2022-08-25T08:56:06.273Z,3.23
2022-08-25T08:57:29.627Z,2.81
2022-08-25T09:00:24.360Z,3.54
2022-08-25T09:01:54.136Z,3.09
2022-08-25T09:03:42.041Z,4.44
2022-08-25T09:05:08.263Z,4.49
2022-08-25T09:09:38.072Z,3.05
2022-08-25T09:11:19.869Z,4.18
2022-08-25T09:14:11.796Z,3.91
2022-08-25T09:18:08.668Z,2.88
2022-08-25T09:19:37.313Z,2.70
2022-08-25T09:22:49.785Z,2.78
2022-08-25T09:24:17.204Z,3.19
2022-08-25T09:25:53.346Z,3.35
2022-08-25T09:27:34.433Z,2.76
2022-08-25T09:29:06.172Z,3.30
2022-08-25T09:30:30.359Z,2.82
2022-08-25T09:31:55.639Z,2.70
2022-08-25T09:33:21.525Z,2.66
2022-08-25T09:34:45.357Z,3.13
2022-08-25T09:37:24.730Z,2.82
2022-08-25T09:38:48.144Z,3.67
2022-08-25T09:40:12.100Z,2.79
2022-08-25T09:41:53.957Z,2.85
2022-08-25T09:44:45.535Z,3.05
2022-08-25T09:47:47.447Z,2.78
2022-08-25T09:49:12.720Z,3.54
2022-08-25T09:50:36.210Z,3.25
2022-08-25T09:53:21.845Z,2.68
2022-08-25T09:54:46.906Z,3.09
2022-08-25T09:56:18.199Z,2.49
2022-08-25T09:58:06.895Z,2.99
2022-08-25T09:59:35.148Z,2.59
2022-08-25T10:01:14.040Z,2.74
2022-08-25T10:02:35.339Z,4.05
2022-08-25T10:16:35.657Z,2.38
2022-08-25T10:19:24.780Z,2.66
2022-08-25T10:21:14.562Z,2.97
2022-08-25T10:22:40.596Z,2.66
2022-08-25T10:24:02.342Z,2.31
2022-08-25T10:25:28.057Z,2.76
2022-08-25T10:26:59.108Z,2.93
2022-08-25T10:28:30.534Z,2.79
2022-08-25T10:33:23.695Z,2.62
2022-08-25T10:36:35.357Z,2.38
2022-08-25T10:38:21.673Z,2.67
2022-08-25T10:39:43.171Z,2.78
2022-08-25T10:41:39.893Z,2.36
2022-08-25T10:43:15.644Z,2.37
2022-08-25T10:44:43.103Z,2.46
2022-08-25T10:46:23.887Z,2.45
2022-08-25T10:48:14.813Z,2.21
2022-08-25T10:56:07.569Z,2.42
2022-08-25T10:57:43.089Z,3.23
2022-08-25T10:59:30.666Z,3.18
2022-08-25T11:00:59.177Z,2.89
2022-08-25T11:02:48.107Z,3.14
2022-08-25T11:07:20.390Z,2.56
2022-08-25T11:08:59.460Z,2.66
2022-08-25T11:12:35.035Z,3.58
2022-08-25T11:14:06.334Z,3.38
2022-08-25T11:15:29.274Z,2.57
2022-08-25T11:17:18.914Z,2.68
2022-08-25T11:20:26.466Z,1.97
2022-08-25T11:22:04.551Z,2.18
2022-08-25T11:23:32.677Z,2.59
2022-08-25T11:25:18.290Z,2.54
2022-08-25T11:26:48.950Z,2.57
2022-08-25T11:28:30.083Z,1.97
2022-08-25T11:31:30.252Z,2.07
2022-08-25T11:32:52.704Z,2.48
2022-08-25T11:34:21.002Z,2.13
2022-08-25T11:49:59.563Z,3.31
2022-08-25T11:53:29.019Z,2.62
2022-08-25T11:54:51.094Z,2.07
2022-08-25T11:56:36.109Z,2.07
2022-08-25T11:58:31.622Z,1.61
2022-08-25T12:00:02.058Z,2.32
2022-08-25T12:01:44.124Z,1.63
2022-08-25T12:03:45.929Z,1.45
2022-08-25T12:07:02.174Z,1.80
2022-08-25T12:08:53.485Z,1.98
2022-08-25T12:12:37.269Z,1.82
2022-08-25T12:14:20.364Z,2.01
2022-08-25T12:17:27.209Z,1.40
2022-08-25T12:18:50.448Z,1.86
2022-08-25T12:20:19.389Z,2.03
2022-08-25T12:22:58.383Z,1.33
2022-08-25T12:28:12.063Z,1.68
2022-08-25T12:29:52.243Z,2.37
2022-08-25T12:31:21.239Z,1.68
2022-08-25T12:33:07.222Z,2.05
2022-08-25T12:35:02.114Z,1.83
2022-08-25T12:36:33.358Z,2.04
2022-08-25T12:38:07.191Z,1.50
2022-08-25T12:39:33.772Z,1.65
2022-08-25T12:42:41.242Z,1.58
2022-08-25T12:45:43.129Z,1.30
2022-08-25T12:48:44.179Z,1.46
2022-08-25T12:52:53.479Z,1.66
2022-08-25T12:54:40.648Z,1.57
2022-08-25T12:56:17.966Z,1.68
2022-08-25T12:57:47.300Z,1.48
2022-08-25T12:59:12.609Z,1.42
2022-08-25T13:02:27.926Z,1.18
2022-08-25T13:06:35.274Z,1.34
2022-08-25T13:08:20.284Z,1.46
2022-08-25T13:10:17.526Z,1.62
2022-08-25T13:11:42.801Z,1.79
2022-08-25T13:13:39.994Z,1.81
2022-08-25T13:15:01.693Z,1.54
2022-08-25T13:16:29.064Z,1.82
2022-08-25T13:17:50.226Z,2.02
2022-08-25T13:19:20.035Z,1.61
2022-08-25T13:20:48.168Z,3.01
2022-08-25T13:23:41.890Z,2.14
2022-08-25T13:25:07.294Z,1.78
2022-08-25T13:26:48.192Z,1.61
2022-08-25T13:28:11.248Z,2.70
2022-08-25T13:29:40.850Z,1.91
2022-08-25T13:32:32.178Z,2.09
2022-08-25T13:35:32.323Z,1.95
2022-08-25T13:36:59.429Z,2.06
2022-08-25T13:38:26.240Z,1.87
2022-08-25T13:40:20.263Z,2.74
2022-08-25T13:41:55.485Z,3.79
2022-08-25T13:43:27.426Z,2.51
2022-08-25T13:44:51.791Z,2.44
2022-08-25T13:46:12.840Z,1.84
2022-08-25T13:47:43.675Z,4.21
2022-08-25T13:50:20.066Z,2.82
2022-08-25T14:19:04.470Z,1.47
2022-08-25T14:20:27.732Z,2.09
2022-08-25T14:22:00.345Z,1.94
2022-08-25T14:23:29.488Z,2.41
2022-08-25T14:24:53.992Z,2.21
2022-08-25T14:26:16.586Z,1.74
2022-08-25T14:28:03.563Z,2.34
2022-08-25T14:29:14.418Z,2.07
2022-08-25T14:31:54.384Z,2.07
2022-08-25T14:33:16.869Z,1.99
2022-08-25T14:34:43.942Z,1.82
2022-08-25T14:36:06.113Z,1.79
2022-08-25T14:37:29.340Z,1.92
2022-08-25T14:38:54.902Z,2.51
2022-08-25T14:40:24.397Z,2.86
2022-08-25T14:42:01.401Z,1.62
2022-08-25T14:43:31.247Z,1.54
2022-08-25T14:56:33.634Z,2.02
2022-08-25T14:59:14.133Z,2.22
2022-08-25T15:00:39.589Z,1.65
2022-08-25T15:02:03.990Z,2.16
2022-08-25T15:04:57.386Z,2.08
2022-08-25T15:06:19.388Z,2.00
2022-08-25T15:07:41.654Z,1.72
2022-08-25T15:09:07.832Z,1.57
2022-08-25T15:10:31.947Z,1.80
2022-08-25T15:11:55.603Z,1.74
2022-08-25T15:13:20.237Z,1.87
2022-08-25T15:14:43.956Z,1.63
2022-08-25T15:17:18.687Z,1.67
2022-08-25T15:18:41.484Z,1.69
2022-08-25T15:20:06.989Z,1.70
2022-08-25T15:21:33.051Z,1.53
2022-08-25T15:22:58.054Z,1.90
2022-08-25T15:25:49.471Z,2.24
2022-08-25T15:27:13.860Z,1.69
2022-08-25T15:29:57.167Z,1.68
2022-08-25T15:31:19.938Z,1.84
2022-08-25T15:32:48.473Z,1.89
2022-08-25T15:34:11.861Z,1.74
2022-08-25T15:35:34.852Z,2.08
2022-08-25T15:36:57.215Z,2.02
2022-08-25T15:38:22.285Z,3.48
2022-08-25T15:39:45.532Z,2.00
2022-08-25T15:41:13.910Z,1.52
2022-08-25T15:42:38.033Z,1.67
2022-08-25T15:45:19.471Z,1.63
2022-08-25T15:46:50.182Z,1.86
2022-08-25T15:48:14.762Z,1.78
2022-08-25T15:49:40.174Z,1.79
2022-08-25T15:52:44.520Z,1.77
2022-08-25T15:53:52.865Z,1.68
2022-08-25T15:55:15.835Z,2.04
2022-08-25T15:56:39.493Z,1.61
2022-08-25T15:58:03.993Z,2.12
2022-08-25T15:59:29.385Z,2.02
2022-08-25T16:00:56.035Z,1.96
2022-08-25T16:02:15.593Z,2.37
2022-08-25T16:03:37.071Z,1.75
2022-08-25T16:04:58.501Z,1.80
2022-08-25T16:06:32.378Z,1.96
2022-08-25T16:07:56.958Z,1.96
2022-08-25T16:09:19.242Z,1.82
2022-08-25T16:10:43.436Z,2.03
2022-08-25T16:12:08.595Z,2.62
2022-08-25T16:13:30.742Z,2.56
2022-08-25T16:14:58.498Z,2.18
2022-08-25T16:16:23.965Z,1.74
2022-08-25T16:17:50.599Z,2.47
2022-08-25T16:19:13.572Z,1.97
2022-08-25T16:20:38.683Z,1.90
2022-08-25T16:23:23.450Z,1.85
2022-08-25T16:24:50.086Z,2.07
2022-08-25T16:26:13.035Z,2.09
2022-08-25T16:28:54.043Z,2.30
2022-08-25T16:30:17.799Z,2.14
2022-08-25T16:31:40.793Z,2.19
2022-08-25T16:33:03.183Z,2.14
2022-08-25T16:34:28.683Z,2.08
2022-08-25T16:35:49.830Z,2.21
2022-08-25T16:37:14.913Z,2.52
2022-08-25T16:38:36.964Z,2.41
2022-08-25T16:39:58.741Z,2.37
2022-08-25T16:41:23.951Z,2.61
2022-08-25T16:42:46.495Z,2.39
2022-08-25T16:44:11.163Z,1.94
2022-08-25T16:45:31.562Z,4.22
2022-08-25T16:46:54.491Z,3.97
2022-08-25T16:48:16.369Z,3.78
2022-08-25T16:49:37.938Z,2.89
2022-08-25T16:50:59.941Z,2.97
2022-08-25T16:52:21.582Z,2.65
2022-08-25T16:53:44.905Z,2.94
2022-08-25T16:55:10.789Z,2.82
2022-08-25T16:56:33.534Z,2.92
2022-08-25T16:57:54.677Z,3.03
2022-08-25T16:59:16.637Z,2.77
2022-08-25T17:00:38.783Z,3.05
2022-08-25T17:02:03.637Z,3.29
2022-08-25T17:03:29.945Z,3.22
2022-08-25T17:04:50.263Z,2.94
2022-08-25T17:06:15.194Z,3.52
2022-08-25T17:07:36.740Z,3.21
2022-08-25T17:08:58.160Z,3.33
2022-08-25T17:10:19.874Z,3.01
2022-08-25T17:11:44.347Z,3.17
2022-08-25T17:13:05.704Z,5.92
2022-08-25T17:14:27.277Z,4.89
2022-08-25T17:15:48.922Z,5.98
2022-08-25T17:17:12.582Z,5.18
2022-08-25T17:18:34.451Z,3.94
2022-08-25T17:19:57.065Z,3.36
2022-08-25T17:21:23.895Z,2.92
2022-08-25T17:22:42.870Z,2.89
2022-08-25T17:24:04.949Z,3.01
2022-08-25T17:25:27.524Z,2.99
2022-08-25T17:26:52.474Z,3.92
2022-08-25T17:28:13.815Z,4.24
2022-08-25T17:29:35.940Z,3.24
2022-08-25T17:30:59.514Z,2.64
2022-08-25T17:32:22.937Z,3.02
2022-08-25T17:33:46.734Z,3.66
2022-08-25T17:35:10.977Z,5.40
2022-08-25T17:36:34.618Z,5.57
2022-08-25T17:37:56.442Z,3.99
2022-08-25T17:39:19.254Z,3.55
2022-08-25T17:40:40.995Z,2.92
2022-08-25T17:42:03.267Z,3.02
2022-08-25T17:43:24.935Z,3.13
2022-08-25T17:44:46.497Z,2.74
2022-08-25T17:46:11.344Z,2.28
2022-08-25T17:47:33.596Z,2.55
2022-08-25T17:48:55.174Z,2.74
2022-08-25T17:50:18.246Z,4.07
2022-08-25T17:51:40.978Z,3.20
2022-08-25T17:53:02.261Z,4.22
2022-08-25T17:54:23.763Z,3.61
2022-08-25T17:55:46.311Z,5.28
2022-08-25T17:58:18.021Z,5.41
2022-08-25T17:59:41.792Z,5.70
2022-08-25T18:01:03.489Z,5.34
2022-08-25T18:02:29.548Z,3.54
2022-08-25T18:03:51.348Z,3.04
2022-08-25T18:05:16.947Z,3.33
2022-08-25T18:06:39.726Z,2.74
2022-08-25T18:08:03.673Z,2.85
2022-08-25T18:09:27.905Z,2.79
2022-08-25T18:10:52.609Z,2.77
2022-08-25T18:12:19.802Z,3.35
2022-08-25T18:13:41.752Z,2.93
2022-08-25T18:15:06.797Z,3.19
2022-08-25T18:16:31.630Z,3.98
2022-08-25T18:17:55.371Z,9.08
2022-08-25T18:19:18.728Z,5.02
2022-08-25T18:20:44.094Z,10.28
2022-08-25T18:22:10.220Z,4.65
2022-08-25T18:23:33.865Z,4.47
2022-08-25T18:24:57.964Z,4.72
2022-08-25T18:26:25.498Z,4.97
2022-08-25T18:27:47.191Z,5.09
2022-08-25T18:29:11.430Z,5.31
2022-08-25T18:30:34.099Z,5.64
2022-08-25T18:32:04.695Z,5.19
2022-08-25T18:33:26.713Z,5.52
2022-08-25T18:34:53.885Z,5.48
2022-08-25T18:36:16.769Z,5.96
2022-08-25T18:37:41.220Z,6.36
2022-08-25T18:39:10.871Z,5.34
2022-08-25T18:40:46.853Z,5.79
2022-08-25T18:42:11.585Z,5.84
2022-08-25T18:55:18.727Z,5.49
2022-08-25T18:57:59.559Z,4.92
2022-08-25T18:59:24.233Z,4.48
2022-08-25T19:00:47.236Z,4.63
2022-08-25T19:02:09.693Z,4.77
2022-08-25T19:03:34.256Z,5.14
2022-08-25T19:04:56.739Z,5.12
2022-08-25T19:06:19.930Z,4.71
2022-08-25T19:07:45.007Z,4.29
2022-08-25T19:09:09.588Z,4.64
2022-08-25T19:10:34.617Z,4.53
2022-08-25T19:11:59.953Z,4.00
2022-08-25T19:13:23.549Z,4.30
2022-08-25T19:14:46.771Z,4.39
2022-08-25T19:16:20.269Z,4.54
2022-08-25T19:17:44.865Z,4.48
2022-08-25T19:19:10.270Z,4.92
2022-08-25T19:22:01.531Z,4.06
2022-08-25T19:23:27.876Z,3.76
2022-08-25T19:24:56.536Z,4.01
2022-08-25T19:26:17.891Z,3.68
2022-08-25T19:27:41.536Z,3.87
2022-08-25T19:29:09.103Z,3.13
2022-08-25T19:30:31.359Z,3.42
2022-08-25T19:33:42.835Z,3.72
2022-08-25T19:34:42.222Z,3.36
2022-08-25T19:36:04.416Z,3.36
2022-08-25T19:37:27.573Z,3.67
2022-08-25T19:38:50.479Z,3.27
2022-08-25T19:40:14.020Z,2.87
2022-08-25T19:41:37.474Z,3.06
2022-08-25T19:43:03.512Z,2.76
2022-08-25T19:44:25.579Z,3.03
2022-08-25T19:45:48.678Z,3.32
2022-08-25T19:47:13.196Z,3.25
2022-08-25T19:48:35.368Z,2.87
2022-08-25T19:50:01.047Z,3.42
2022-08-25T19:51:23.087Z,2.85
2022-08-25T19:52:45.770Z,3.25
2022-08-25T19:54:10.366Z,3.53
2022-08-25T19:55:32.269Z,3.16
2022-08-25T19:56:55.585Z,3.03
2022-08-25T19:58:19.076Z,3.45
2022-08-25T19:59:43.036Z,2.95
2022-08-25T20:01:06.103Z,3.06
2022-08-25T20:02:29.483Z,3.04
2022-08-25T20:03:51.956Z,2.90
2022-08-25T20:05:13.985Z,3.47
2022-08-25T20:06:36.880Z,3.13
2022-08-25T20:07:58.407Z,3.00
2022-08-25T20:09:35.523Z,2.92
2022-08-25T20:10:43.688Z,3.33
2022-08-25T20:12:06.329Z,2.96
2022-08-25T20:13:28.700Z,3.24
2022-08-25T20:14:50.749Z,3.52
2022-08-25T20:16:12.976Z,3.42
2022-08-25T20:17:36.630Z,3.28
2022-08-25T20:19:00.436Z,3.63
2022-08-25T20:20:24.685Z,3.85
2022-08-25T20:21:47.965Z,3.71
2022-08-25T20:23:09.617Z,3.68
2022-08-25T20:24:31.375Z,3.40
2022-08-25T20:25:52.951Z,3.14
2022-08-25T20:27:20.809Z,3.59
2022-08-25T20:28:42.578Z,3.11
2022-08-25T20:30:10.789Z,3.43
2022-08-25T20:31:33.466Z,3.58
2022-08-25T20:32:56.602Z,3.16
2022-08-25T20:34:17.864Z,3.35
2022-08-25T20:35:39.772Z,3.50
2022-08-25T20:37:02.081Z,3.01
2022-08-25T20:38:23.734Z,3.18
2022-08-25T20:39:45.186Z,3.13
2022-08-25T20:41:11.095Z,3.42
2022-08-25T20:42:34.109Z,2.73
2022-08-25T20:43:55.421Z,3.83
2022-08-25T20:45:19.439Z,3.28
2022-08-25T20:46:41.022Z,3.60
2022-08-25T20:48:05.358Z,3.38
2022-08-25T20:49:28.876Z,2.98
2022-08-25T20:50:54.533Z,2.99
2022-08-25T20:52:15.856Z,3.15
2022-08-25T20:53:38.263Z,3.18
2022-08-25T20:55:01.751Z,3.36
2022-08-25T20:56:25.263Z,3.20
2022-08-25T20:57:48.059Z,3.14
2022-08-25T20:59:10.388Z,3.38
2022-08-25T21:00:36.828Z,3.39
2022-08-25T21:01:58.484Z,3.28
2022-08-25T21:03:25.367Z,3.54
2022-08-25T21:04:49.038Z,3.49
2022-08-25T21:06:11.235Z,3.50
2022-08-25T21:07:35.714Z,3.48
2022-08-25T21:08:57.404Z,4.13
2022-08-25T21:10:21.829Z,2.94
2022-08-25T21:11:44.049Z,3.16
2022-08-25T21:13:06.708Z,2.94
2022-08-25T21:15:40.074Z,2.79
2022-08-25T21:17:03.874Z,3.31
2022-08-25T21:18:28.630Z,2.98
2022-08-25T21:21:11.230Z,3.12
2022-08-25T21:22:34.168Z,3.39
2022-08-25T21:23:57.145Z,3.09
2022-08-25T21:25:19.312Z,3.19
2022-08-25T21:26:48.916Z,3.27
2022-08-25T21:28:03.840Z,3.53
2022-08-25T21:29:25.970Z,3.69
2022-08-25T21:30:49.297Z,3.75
2022-08-25T21:32:10.561Z,3.64
2022-08-25T21:33:32.903Z,2.61
2022-08-25T21:34:54.402Z,3.84
2022-08-25T21:36:16.530Z,3.74
2022-08-25T21:37:39.784Z,3.62
2022-08-25T21:39:01.177Z,3.86
2022-08-25T21:40:22.977Z,4.08
2022-08-25T21:41:44.470Z,3.61
2022-08-25T21:43:06.820Z,4.04
2022-08-25T21:44:30.335Z,3.94
2022-08-25T21:45:52.056Z,4.43
2022-08-25T21:47:13.791Z,4.07
2022-08-25T21:48:36.426Z,4.45
2022-08-25T21:49:58.383Z,3.79
2022-08-25T21:51:22.333Z,4.18
2022-08-25T21:52:44.514Z,4.17
2022-08-25T21:54:07.452Z,4.54
2022-08-25T21:55:28.572Z,4.12
2022-08-25T21:56:54.991Z,4.28
2022-08-25T21:58:16.592Z,4.27
2022-08-25T21:59:38.281Z,4.06
2022-08-25T22:01:11.971Z,4.59
2022-08-25T22:02:33.606Z,4.38
2022-08-25T22:03:55.761Z,4.42
2022-08-25T22:05:17.564Z,4.79
2022-08-25T22:06:40.544Z,4.86
2022-08-25T22:08:02.050Z,4.63
2022-08-25T22:09:23.834Z,4.66
2022-08-25T22:10:45.486Z,4.18
2022-08-25T22:12:06.994Z,4.48
2022-08-25T22:13:28.394Z,4.78
2022-08-25T22:14:50.828Z,4.23